This is the latest recevied weather packets stored in our database for station/object 7L2IWN-13. If no packets are shown the sender has not sent any weather packets the latest 10 day(s).
| Time | Temp. | Humidity | Pressure | Rain* | Wind** | Luminosity | Snow |
|---|---|---|---|---|---|---|---|
| 1777440141 | 18.33° C | 83% | 1010.2 hPa | 0 mm | - | - | - |
| 1777439419 | 18.89° C | 81% | 1010 hPa | 0 mm | - | - | - |
| 1777438701 | 18.89° C | 81% | 1010 hPa | 0 mm | - | - | - |
| 1777437981 | 19.44° C | 79% | 1009.9 hPa | 0 mm | - | - | - |
| 1777436539 | 18.33° C | 79% | 1010 hPa | 0 mm | - | - | - |
| 1777435100 | 18.33° C | 81% | 1010 hPa | 0 mm | - | - | - |
| 1777434381 | 18.89° C | 77% | 1010.4 hPa | 0 mm | - | - | - |
| 1777433659 | 18.89° C | 76% | 1010.2 hPa | 0 mm | - | - | - |
| 1777432939 | 18.89° C | 74% | 1010 hPa | 0 mm | - | - | - |
| 1777432220 | 18.89° C | 67% | 1010.1 hPa | 0 mm | - | - | - |
| 1777431499 | 18.33° C | 72% | 1010.2 hPa | 0 mm | - | - | - |
| 1777430781 | 17.78° C | 75% | 1010.3 hPa | 0 mm | - | - | - |
| 1777430060 | 17.78° C | 76% | 1010.4 hPa | 0 mm | - | - | - |
| 1777429340 | 17.78° C | 76% | 1010.4 hPa | 0 mm | - | - | - |
| 1777428620 | 17.78° C | 76% | 1010.8 hPa | 0 mm | - | - | - |
| 1777427900 | 17.78° C | 74% | 1010.9 hPa | 0 mm | - | - | - |
| 1777427180 | 17.78° C | 73% | 1010.7 hPa | 0 mm | - | - | - |
| 1777426461 | 17.78° C | 71% | 1010.6 hPa | 0 mm | - | - | - |
| 1777425739 | 17.22° C | 77% | 1010.6 hPa | 0 mm | - | - | - |
| 1777425024 | 16.67° C | 83% | 1010.6 hPa | 0 mm | - | - | - |
| 1777423581 | 16.11° C | 90% | 1010.8 hPa | 0 mm | - | - | - |
| 1777422862 | 16.11° C | 90% | 1010.8 hPa | 0 mm | - | - | - |
| 1777421423 | 15° C | 92% | 1010.8 hPa | 0 mm | - | - | - |
| 1777420702 | 15° C | 93% | 1010.5 hPa | 0 mm | - | - | - |
| 1777419980 | 15° C | 94% | 1010.4 hPa | 0 mm | - | - | - |
* Rain latest hour (hover to see other rain measurements)
** Current wind speed in m/s (hover to see current wind gust speed)